Time;durP1;ratioP1;P1;durP2;ratioP2;P2;SDS_P1;SDS_P2;PMS_P1;PMS_P2;Temp;Humidity;BMP_temperature;BMP_pressure;BME280_temperature;BME280_humidity;BME280_pressure;Samples;Min_cycle;Max_cycle;Signal;HPM_P1;HPM_P2
2022/12/12 00:02:09;;;;;;;11.10;8.90;;;;;;;;;;4999104;28;20217;-84
2022/12/12 00:04:37;;;;;;;9.97;8.73;;;;;;;;;;4976964;28;20222;-85
2022/12/12 00:07:03;;;;;;;10.53;8.53;;;;;;;;;;4996155;28;20221;-84
2022/12/12 00:09:28;;;;;;;9.90;8.90;;;;;;;;;;4981748;28;20690;-84
2022/12/12 00:11:56;;;;;;;10.93;9.23;;;;;;;;;;4993741;28;20217;-85
2022/12/12 00:14:24;;;;;;;12.67;9.40;;;;;;;;;;4980118;28;20285;-85
2022/12/12 00:16:52;;;;;;;10.53;9.43;;;;;;;;;;4988784;28;20242;-85
2022/12/12 00:19:18;;;;;;;10.47;9.37;;;;;;;;;;5009693;28;20752;-85
2022/12/12 00:21:43;;;;;;;10.67;9.47;;;;;;;;;;4980950;28;20217;-85
2022/12/12 00:24:11;;;;;;;12.10;10.00;;;;;;;;;;4992340;28;20213;-85
2022/12/12 00:26:39;;;;;;;10.10;9.10;;;;;;;;;;5002839;28;20239;-85
2022/12/12 00:29:08;;;;;;;12.87;9.47;;;;;;;;;;5000116;28;20236;-85
2022/12/12 00:31:33;;;;;;;10.43;9.10;;;;;;;;;;5008011;28;20244;-85
2022/12/12 00:33:59;;;;;;;12.60;9.53;;;;;;;;;;4987480;28;20214;-85
2022/12/12 00:36:26;;;;;;;11.87;9.97;;;;;;;;;;4975898;28;20226;-85
2022/12/12 00:38:52;;;;;;;11.20;8.80;;;;;;;;;;4996439;28;20221;-85
2022/12/12 00:41:20;;;;;;;10.43;9.40;;;;;;;;;;4979139;28;20516;-85
2022/12/12 00:43:48;;;;;;;14.40;12.87;;;;;;;;;;4984348;28;20217;-85
2022/12/12 00:46:15;;;;;;;13.57;11.53;;;;;;;;;;5008048;28;20792;-85
2022/12/12 00:48:42;;;;;;;14.40;11.50;;;;;;;;;;4994900;28;20225;-85
2022/12/12 00:51:10;;;;;;;11.63;9.97;;;;;;;;;;4995491;28;20285;-85
2022/12/12 00:53:36;;;;;;;9.20;8.30;;;;;;;;;;4973834;28;20861;-85
2022/12/12 00:56:04;;;;;;;9.53;8.37;;;;;;;;;;4987623;28;20237;-85
2022/12/12 00:58:32;;;;;;;9.80;8.83;;;;;;;;;;4987546;28;20225;-85
2022/12/12 01:01:05;;;;;;;11.07;8.37;;;;;;;;;;4975148;28;20224;-85
2022/12/12 01:03:34;;;;;;;8.57;7.67;;;;;;;;;;4986736;28;20586;-85
2022/12/12 01:06:02;;;;;;;10.93;8.80;;;;;;;;;;4984936;28;20258;-85
2022/12/12 01:08:28;;;;;;;10.27;8.50;;;;;;;;;;4975584;28;20277;-85
2022/12/12 01:10:55;;;;;;;11.47;9.00;;;;;;;;;;4971908;28;20217;-85
2022/12/12 01:13:21;;;;;;;11.33;9.07;;;;;;;;;;4973872;28;20244;-84
2022/12/12 01:15:48;;;;;;;9.43;8.27;;;;;;;;;;4982284;28;20235;-84
2022/12/12 01:18:14;;;;;;;14.10;9.10;;;;;;;;;;4989991;28;20230;-85
2022/12/12 01:20:40;;;;;;;11.37;8.90;;;;;;;;;;4966890;28;20290;-85
2022/12/12 01:23:05;;;;;;;10.33;8.77;;;;;;;;;;4982290;28;20252;-85
2022/12/12 01:25:31;;;;;;;9.83;8.27;;;;;;;;;;4982553;28;20229;-85
2022/12/12 01:27:57;;;;;;;12.07;9.20;;;;;;;;;;4988719;28;20235;-85
2022/12/12 01:30:23;;;;;;;13.37;8.70;;;;;;;;;;5010067;28;20283;-85
2022/12/12 01:32:48;;;;;;;11.10;8.37;;;;;;;;;;5002035;28;20229;-85
2022/12/12 01:35:14;;;;;;;11.37;9.17;;;;;;;;;;5015851;28;20236;-85
2022/12/12 01:37:42;;;;;;;12.17;8.27;;;;;;;;;;4982194;28;20209;-85
2022/12/12 01:40:13;;;;;;;10.43;9.23;;;;;;;;;;4984085;28;20222;-85
2022/12/12 01:42:38;;;;;;;11.23;8.97;;;;;;;;;;4979716;28;20226;-84
2022/12/12 01:45:05;;;;;;;11.20;8.57;;;;;;;;;;4976834;28;20763;-84
2022/12/12 01:47:36;;;;;;;10.03;8.47;;;;;;;;;;5009577;28;20232;-85
2022/12/12 01:50:05;;;;;;;10.33;8.70;;;;;;;;;;4988531;28;20370;-85
2022/12/12 01:52:43;;;;;;;11.40;8.60;;;;;;;;;;4990350;28;20760;-84
2022/12/12 01:55:10;;;;;;;10.20;8.87;;;;;;;;;;4983220;28;20232;-85
2022/12/12 01:57:38;;;;;;;12.17;9.40;;;;;;;;;;4984666;28;20225;-84
2022/12/12 02:00:06;;;;;;;17.00;9.30;;;;;;;;;;4999381;28;20240;-84
2022/12/12 02:02:33;;;;;;;10.33;8.93;;;;;;;;;;4990754;28;20280;-85
2022/12/12 02:05:00;;;;;;;19.90;15.13;;;;;;;;;;5014432;28;20225;-85
2022/12/12 02:07:25;;;;;;;16.20;13.67;;;;;;;;;;4966163;28;20284;-85
2022/12/12 02:09:51;;;;;;;51.67;36.87;;;;;;;;;;4985885;28;20221;-85
2022/12/12 02:12:17;;;;;;;26.80;19.23;;;;;;;;;;4991735;28;20263;-85
2022/12/12 02:14:50;;;;;;;72.07;52.03;;;;;;;;;;4983739;28;20608;-84
2022/12/12 02:17:47;;;;;;;23.63;17.80;;;;;;;;;;4957620;28;20684;-85
2022/12/12 02:20:31;;;;;;;15.13;11.93;;;;;;;;;;4999685;28;20571;-85
2022/12/12 02:23:30;;;;;;;16.53;10.07;;;;;;;;;;5029996;28;20243;-84
2022/12/12 02:26:14;;;;;;;12.87;9.70;;;;;;;;;;5001377;28;20221;-84
2022/12/12 02:29:01;;;;;;;12.57;9.83;;;;;;;;;;5028848;28;20334;-84
2022/12/12 02:31:38;;;;;;;12.93;9.70;;;;;;;;;;4989517;28;20757;-84
2022/12/12 02:34:14;;;;;;;13.40;10.03;;;;;;;;;;5000956;28;20230;-84
2022/12/12 02:36:43;;;;;;;13.43;9.47;;;;;;;;;;4996446;28;20229;-84
2022/12/12 02:39:27;;;;;;;13.90;10.27;;;;;;;;;;5015096;28;20229;-84
2022/12/12 02:41:56;;;;;;;12.87;9.80;;;;;;;;;;4987574;28;20248;-84
2022/12/12 02:44:46;;;;;;;14.27;10.23;;;;;;;;;;4965341;28;20687;-84
2022/12/12 02:47:18;;;;;;;14.20;10.60;;;;;;;;;;4979970;28;20237;-84
2022/12/12 02:50:05;;;;;;;14.20;10.13;;;;;;;;;;4961134;28;20297;-84
2022/12/12 02:52:34;;;;;;;13.57;10.50;;;;;;;;;;4987386;28;20686;-85
2022/12/12 02:54:59;;;;;;;14.50;9.77;;;;;;;;;;4982732;28;20628;-85
2022/12/12 02:57:27;;;;;;;13.53;10.70;;;;;;;;;;4974575;28;20570;-84
2022/12/12 03:00:02;;;;;;;13.17;10.13;;;;;;;;;;4972766;28;20220;-84
2022/12/12 03:02:36;;;;;;;12.73;10.77;;;;;;;;;;4976642;28;20296;-84
2022/12/12 03:08:50;;;;;;;12.17;9.70;;;;;;;;;;5000715;28;20234;-84
2022/12/12 03:11:30;;;;;;;18.00;11.63;;;;;;;;;;5002472;28;20233;-84
2022/12/12 03:14:10;;;;;;;12.57;10.00;;;;;;;;;;4991801;28;20222;-84
2022/12/12 03:16:57;;;;;;;14.33;10.83;;;;;;;;;;4993750;28;20252;-84
2022/12/12 03:19:24;;;;;;;13.00;9.90;;;;;;;;;;4996516;28;20236;-84
2022/12/12 03:21:58;;;;;;;11.87;10.60;;;;;;;;;;4991523;28;20729;-84
2022/12/12 03:24:40;;;;;;;13.53;10.83;;;;;;;;;;4987560;28;20218;-84
2022/12/12 03:27:15;;;;;;;13.43;10.47;;;;;;;;;;4998989;28;20593;-84
2022/12/12 03:29:51;;;;;;;13.57;10.80;;;;;;;;;;4982636;28;20225;-84
2022/12/12 03:32:21;;;;;;;13.30;10.57;;;;;;;;;;4978969;28;20743;-84
2022/12/12 03:34:49;;;;;;;16.57;11.90;;;;;;;;;;4980407;28;20236;-84
2022/12/12 03:37:34;;;;;;;14.10;11.00;;;;;;;;;;4992966;28;20236;-84
2022/12/12 03:40:08;;;;;;;14.77;12.53;;;;;;;;;;4954560;28;20261;-84
2022/12/12 03:42:53;;;;;;;16.43;12.60;;;;;;;;;;4991822;28;20216;-84
2022/12/12 03:45:26;;;;;;;16.03;12.30;;;;;;;;;;4995686;28;20234;-84
2022/12/12 03:48:03;;;;;;;16.17;12.23;;;;;;;;;;4998531;28;20600;-84
2022/12/12 03:50:31;;;;;;;13.90;10.73;;;;;;;;;;5022253;28;20305;-85
2022/12/12 03:53:01;;;;;;;15.13;11.97;;;;;;;;;;5018670;28;20217;-85
2022/12/12 03:55:32;;;;;;;15.47;12.17;;;;;;;;;;4999991;28;20575;-84
2022/12/12 03:58:05;;;;;;;17.30;11.70;;;;;;;;;;5009436;28;20858;-84
2022/12/12 04:00:36;;;;;;;15.90;11.33;;;;;;;;;;5013118;28;20601;-85
2022/12/12 04:03:09;;;;;;;13.60;11.20;;;;;;;;;;4984675;28;20224;-84
2022/12/12 04:06:25;;;;;;;13.13;10.93;;;;;;;;;;5023084;28;20380;-85
2022/12/12 04:08:27;;;;;;;14.50;11.37;;;;;;;;;;4998330;28;20321;-84
2022/12/12 04:13:58;;;;;;;13.23;10.13;;;;;;;;;;4999072;28;20236;-84
2022/12/12 04:16:28;;;;;;;12.60;10.13;;;;;;;;;;4990237;28;20230;-85
2022/12/12 04:19:03;;;;;;;12.93;10.10;;;;;;;;;;4960867;28;20230;-84
2022/12/12 04:24:40;;;;;;;12.73;10.37;;;;;;;;;;4990079;28;20224;-86
2022/12/12 04:27:28;;;;;;;14.30;10.63;;;;;;;;;;5001676;28;20233;-85
2022/12/12 04:33:43;;;;;;;12.27;9.87;;;;;;;;;;4989211;28;20259;-85
2022/12/12 04:36:12;;;;;;;13.47;10.70;;;;;;;;;;4968793;28;20596;-86
2022/12/12 04:38:42;;;;;;;13.03;9.87;;;;;;;;;;4980782;28;20228;-84
2022/12/12 04:41:12;;;;;;;15.63;11.20;;;;;;;;;;5068707;23;20224;-80
2022/12/12 04:46:20;;;;;;;16.50;11.90;;;;;;;;;;5005356;28;20248;-80
2022/12/12 04:48:56;;;;;;;13.90;11.13;;;;;;;;;;4985121;23;20284;-83
2022/12/12 04:51:36;;;;;;;14.30;10.57;;;;;;;;;;4991096;28;20231;-83
2022/12/12 04:54:06;;;;;;;12.33;10.23;;;;;;;;;;4986163;28;20221;-83
2022/12/12 04:56:34;;;;;;;15.37;10.77;;;;;;;;;;4997681;28;20241;-82
2022/12/12 04:59:02;;;;;;;12.70;10.07;;;;;;;;;;5019735;28;20291;-83
2022/12/12 05:01:41;;;;;;;12.07;10.40;;;;;;;;;;5029992;28;20321;-83
2022/12/12 05:04:22;;;;;;;12.10;10.80;;;;;;;;;;5004870;28;20230;-82
2022/12/12 05:06:50;;;;;;;18.23;12.90;;;;;;;;;;5033323;28;20229;-83
2022/12/12 05:09:15;;;;;;;19.07;13.83;;;;;;;;;;5025103;28;20229;-83
2022/12/12 05:11:44;;;;;;;24.30;13.20;;;;;;;;;;5032703;28;20228;-82
2022/12/12 05:14:10;;;;;;;17.97;13.23;;;;;;;;;;5019904;28;20291;-82
2022/12/12 05:16:40;;;;;;;14.53;12.80;;;;;;;;;;5024956;28;20217;-83
2022/12/12 05:19:05;;;;;;;18.00;13.33;;;;;;;;;;5038414;28;20296;-82
2022/12/12 05:21:31;;;;;;;16.73;12.60;;;;;;;;;;5017294;28;20217;-82
2022/12/12 05:23:56;;;;;;;20.37;12.93;;;;;;;;;;5032630;28;20228;-83
2022/12/12 05:26:27;;;;;;;16.37;13.23;;;;;;;;;;5029473;28;20247;-82
2022/12/12 05:28:55;;;;;;;16.30;13.87;;;;;;;;;;5021613;28;20229;-82
2022/12/12 05:31:21;;;;;;;15.80;13.13;;;;;;;;;;5013905;28;20239;-82
2022/12/12 05:33:49;;;;;;;17.83;14.60;;;;;;;;;;5032486;28;20287;-82
2022/12/12 05:36:14;;;;;;;17.07;13.50;;;;;;;;;;5050400;28;20228;-81
2022/12/12 05:38:42;;;;;;;18.57;14.27;;;;;;;;;;5004263;28;20733;-82
2022/12/12 05:41:08;;;;;;;18.20;13.80;;;;;;;;;;5020218;28;20231;-83
2022/12/12 05:43:36;;;;;;;16.43;12.93;;;;;;;;;;5020143;28;20251;-82
2022/12/12 05:46:05;;;;;;;14.87;12.00;;;;;;;;;;5029023;28;20228;-82
2022/12/12 05:48:31;;;;;;;15.20;12.83;;;;;;;;;;5025107;28;20594;-82
2022/12/12 05:50:56;;;;;;;15.57;13.03;;;;;;;;;;5020415;28;20220;-82
2022/12/12 05:53:24;;;;;;;18.00;12.57;;;;;;;;;;4992511;28;21676;-81
2022/12/12 05:55:50;;;;;;;20.03;12.50;;;;;;;;;;5042022;28;20719;-84
2022/12/12 05:58:16;;;;;;;16.20;12.20;;;;;;;;;;5011082;28;20216;-82
2022/12/12 06:00:42;;;;;;;15.03;11.73;;;;;;;;;;5045059;28;20231;-82
2022/12/12 06:03:12;;;;;;;15.97;12.20;;;;;;;;;;5044729;28;20233;-82
2022/12/12 06:05:37;;;;;;;20.67;14.23;;;;;;;;;;5035864;28;20304;-81
2022/12/12 06:08:03;;;;;;;16.03;13.43;;;;;;;;;;5012827;28;20244;-81
2022/12/12 06:10:31;;;;;;;18.67;12.93;;;;;;;;;;5004002;28;20237;-82
2022/12/12 06:12:56;;;;;;;20.17;15.07;;;;;;;;;;5031859;28;20232;-82
2022/12/12 06:15:22;;;;;;;18.40;14.13;;;;;;;;;;5011460;28;20319;-83
2022/12/12 06:17:50;;;;;;;16.43;12.10;;;;;;;;;;5027963;28;20757;-82
2022/12/12 06:20:16;;;;;;;16.80;12.60;;;;;;;;;;5033801;28;20312;-82
2022/12/12 06:22:42;;;;;;;19.63;13.67;;;;;;;;;;5027911;28;20292;-82
2022/12/12 06:25:08;;;;;;;15.73;13.03;;;;;;;;;;5014348;28;20603;-82
2022/12/12 06:27:33;;;;;;;16.87;12.70;;;;;;;;;;5025527;28;20666;-82
2022/12/12 06:29:59;;;;;;;18.63;15.03;;;;;;;;;;5028660;28;20225;-81
2022/12/12 06:32:24;;;;;;;19.87;14.67;;;;;;;;;;4993437;28;20680;-82
2022/12/12 06:34:50;;;;;;;15.67;13.33;;;;;;;;;;5044582;28;20945;-82
2022/12/12 06:37:15;;;;;;;18.40;14.10;;;;;;;;;;5046988;28;20220;-82
2022/12/12 06:39:41;;;;;;;16.47;13.43;;;;;;;;;;4987710;28;20224;-82
2022/12/12 06:42:07;;;;;;;18.13;14.50;;;;;;;;;;5047711;28;20328;-82
2022/12/12 06:44:32;;;;;;;16.33;13.63;;;;;;;;;;5020978;28;20601;-81
2022/12/12 06:47:00;;;;;;;16.37;14.03;;;;;;;;;;5034485;28;20236;-81
2022/12/12 06:49:26;;;;;;;18.10;14.00;;;;;;;;;;5012214;28;20217;-81
2022/12/12 06:51:54;;;;;;;15.40;12.57;;;;;;;;;;5009782;28;20218;-81
2022/12/12 06:54:19;;;;;;;16.00;11.80;;;;;;;;;;5011534;28;20737;-82
2022/12/12 06:56:45;;;;;;;17.73;12.67;;;;;;;;;;5011435;28;20221;-82
2022/12/12 06:59:11;;;;;;;14.17;11.90;;;;;;;;;;5034653;28;20217;-81
2022/12/12 07:01:36;;;;;;;18.83;12.90;;;;;;;;;;5027935;28;20221;-82
2022/12/12 07:04:02;;;;;;;14.77;12.43;;;;;;;;;;5026085;28;20229;-82
2022/12/12 07:06:27;;;;;;;18.70;13.10;;;;;;;;;;4997807;28;20229;-82
2022/12/12 07:08:53;;;;;;;16.53;13.90;;;;;;;;;;5030756;28;20232;-82
2022/12/12 07:11:27;;;;;;;16.37;12.87;;;;;;;;;;5010750;28;20248;-82
2022/12/12 07:13:53;;;;;;;17.63;14.40;;;;;;;;;;5015615;28;20225;-82
2022/12/12 07:16:18;;;;;;;19.40;14.43;;;;;;;;;;4996848;28;20247;-81
2022/12/12 07:18:44;;;;;;;23.57;16.20;;;;;;;;;;5013914;28;20847;-81
2022/12/12 07:21:12;;;;;;;20.37;13.80;;;;;;;;;;5021409;28;20236;-82
2022/12/12 07:23:37;;;;;;;16.20;12.53;;;;;;;;;;5032140;28;20623;-82
2022/12/12 07:26:04;;;;;;;17.40;13.37;;;;;;;;;;5039800;28;20225;-80
2022/12/12 07:28:32;;;;;;;17.47;13.27;;;;;;;;;;5033922;28;20233;-80
2022/12/12 07:31:04;;;;;;;19.37;13.53;;;;;;;;;;5020852;28;20265;-82
2022/12/12 07:33:29;;;;;;;15.33;12.13;;;;;;;;;;5038593;28;20224;-81
2022/12/12 07:35:58;;;;;;;18.70;13.47;;;;;;;;;;5026069;28;20230;-81
2022/12/12 07:38:27;;;;;;;16.27;13.23;;;;;;;;;;5018455;28;20227;-80
2022/12/12 07:40:52;;;;;;;17.47;13.20;;;;;;;;;;5017728;28;20225;-83
2022/12/12 07:43:18;;;;;;;18.23;14.03;;;;;;;;;;5012075;28;20589;-83
2022/12/12 07:45:46;;;;;;;19.30;13.80;;;;;;;;;;5031839;28;20266;-82
2022/12/12 07:48:12;;;;;;;18.53;13.47;;;;;;;;;;5013461;28;20233;-82
2022/12/12 07:50:38;;;;;;;16.63;13.37;;;;;;;;;;5001337;28;20262;-83
2022/12/12 07:53:03;;;;;;;17.00;13.57;;;;;;;;;;5010765;28;20718;-81
2022/12/12 07:55:31;;;;;;;18.17;13.17;;;;;;;;;;5014929;28;20285;-83
2022/12/12 07:57:57;;;;;;;16.57;13.47;;;;;;;;;;5027113;28;20225;-83
2022/12/12 08:00:23;;;;;;;20.53;14.43;;;;;;;;;;5011913;28;20237;-83
2022/12/12 08:02:48;;;;;;;17.97;14.43;;;;;;;;;;4992220;28;20225;-83
2022/12/12 08:05:16;;;;;;;15.63;13.07;;;;;;;;;;5000796;28;20220;-82
2022/12/12 08:07:42;;;;;;;17.53;13.77;;;;;;;;;;5037558;28;20264;-82
2022/12/12 08:10:10;;;;;;;17.63;13.73;;;;;;;;;;4998691;28;20233;-81
2022/12/12 08:12:36;;;;;;;18.90;14.07;;;;;;;;;;5012341;28;20263;-84
2022/12/12 08:15:02;;;;;;;17.97;14.00;;;;;;;;;;5014720;28;20224;-81
2022/12/12 08:17:27;;;;;;;18.60;14.50;;;;;;;;;;4995392;28;20275;-82
2022/12/12 08:19:55;;;;;;;16.70;14.03;;;;;;;;;;5010468;28;20232;-83
2022/12/12 08:22:23;;;;;;;17.97;14.13;;;;;;;;;;5021237;28;20232;-81
2022/12/12 08:24:48;;;;;;;15.47;13.73;;;;;;;;;;5013013;28;20224;-82
2022/12/12 08:27:16;;;;;;;16.37;13.50;;;;;;;;;;5040693;28;20221;-82
2022/12/12 08:29:43;;;;;;;19.40;13.47;;;;;;;;;;5012275;28;20233;-81
2022/12/12 08:32:08;;;;;;;14.47;12.63;;;;;;;;;;5011729;28;20252;-81
2022/12/12 08:34:36;;;;;;;16.87;13.03;;;;;;;;;;4996729;28;20237;-82
2022/12/12 08:37:02;;;;;;;20.10;13.60;;;;;;;;;;5011160;28;20267;-82
2022/12/12 08:39:32;;;;;;;18.53;14.37;;;;;;;;;;4995176;28;20244;-82
2022/12/12 08:42:00;;;;;;;16.23;13.33;;;;;;;;;;5019233;28;20221;-81
2022/12/12 08:44:26;;;;;;;24.60;14.83;;;;;;;;;;5028878;28;20228;-82
2022/12/12 08:46:51;;;;;;;17.27;14.40;;;;;;;;;;5024834;28;20635;-82
2022/12/12 08:49:17;;;;;;;39.20;24.57;;;;;;;;;;5012697;28;20228;-82
2022/12/12 08:51:43;;;;;;;20.80;15.53;;;;;;;;;;5027754;28;20221;-82
2022/12/12 08:54:10;;;;;;;19.43;14.27;;;;;;;;;;5013664;28;20239;-81
2022/12/12 08:56:38;;;;;;;17.60;13.67;;;;;;;;;;5026789;28;20240;-82
2022/12/12 08:59:04;;;;;;;18.57;14.70;;;;;;;;;;5022582;28;20221;-82
2022/12/12 09:01:30;;;;;;;71.17;54.77;;;;;;;;;;5014020;28;20712;-83
2022/12/12 09:03:56;;;;;;;23.07;17.03;;;;;;;;;;4996960;28;20221;-81
2022/12/12 09:06:22;;;;;;;17.77;14.67;;;;;;;;;;4996027;28;20215;-83
2022/12/12 09:08:47;;;;;;;17.03;13.60;;;;;;;;;;4995635;28;20224;-82
2022/12/12 09:11:13;;;;;;;17.87;14.10;;;;;;;;;;5038250;28;20235;-83
2022/12/12 09:13:39;;;;;;;22.00;14.77;;;;;;;;;;5004609;28;20296;-82
2022/12/12 09:16:05;;;;;;;19.97;13.97;;;;;;;;;;5021943;28;20230;-83
2022/12/12 09:18:31;;;;;;;16.23;13.67;;;;;;;;;;5001453;28;20717;-82
2022/12/12 09:21:00;;;;;;;19.67;14.67;;;;;;;;;;5012939;28;20232;-83
2022/12/12 09:23:25;;;;;;;19.20;14.53;;;;;;;;;;5022758;28;20280;-82
2022/12/12 09:25:53;;;;;;;18.93;14.37;;;;;;;;;;5011027;28;20228;-82
2022/12/12 09:28:20;;;;;;;17.77;14.23;;;;;;;;;;5008837;28;20235;-82
2022/12/12 09:30:46;;;;;;;20.53;15.00;;;;;;;;;;4994907;28;20841;-82
2022/12/12 09:33:12;;;;;;;16.83;14.50;;;;;;;;;;5014129;28;20221;-82
2022/12/12 09:35:38;;;;;;;18.40;14.13;;;;;;;;;;5014923;28;20224;-82
2022/12/12 09:38:06;;;;;;;18.30;13.83;;;;;;;;;;4997971;28;20224;-81
2022/12/12 09:40:54;;;;;;;23.50;18.17;;;;;;;;;;5005626;28;20236;-80
2022/12/12 09:43:21;;;;;;;19.77;14.97;;;;;;;;;;5037650;28;20303;-82
2022/12/12 09:45:49;;;;;;;18.83;14.87;;;;;;;;;;5010719;28;20221;-81
2022/12/12 09:48:29;;;;;;;28.37;18.47;;;;;;;;;;5026222;28;20237;-82
2022/12/12 09:50:55;;;;;;;40.83;28.07;;;;;;;;;;4990568;28;20228;-81
2022/12/12 09:53:21;;;;;;;39.50;25.23;;;;;;;;;;5026568;28;20217;-81
2022/12/12 09:55:51;;;;;;;35.50;22.80;;;;;;;;;;5030060;28;20217;-82
2022/12/12 09:58:23;;;;;;;26.23;17.43;;;;;;;;;;5040843;28;20282;-81
2022/12/12 10:01:09;;;;;;;27.73;18.30;;;;;;;;;;5035808;28;20225;-81
2022/12/12 10:10:24;;;;;;;21.30;14.97;;;;;;;;;;5013993;28;20248;-81
2022/12/12 10:12:51;;;;;;;16.80;14.33;;;;;;;;;;5028102;28;20240;-81
2022/12/12 10:15:36;;;;;;;21.17;15.17;;;;;;;;;;4999257;28;20213;-82
2022/12/12 10:18:40;;;;;;;19.90;16.13;;;;;;;;;;5025053;28;20319;-83
2022/12/12 10:21:19;;;;;;;18.50;14.33;;;;;;;;;;5015699;28;20224;-82
2022/12/12 10:23:59;;;;;;;21.30;15.67;;;;;;;;;;5007122;28;20248;-81
2022/12/12 10:26:28;;;;;;;20.87;17.73;;;;;;;;;;5027006;28;20596;-82
2022/12/12 10:29:02;;;;;;;26.97;16.97;;;;;;;;;;5009693;28;20225;-82
2022/12/12 10:31:36;;;;;;;21.87;16.33;;;;;;;;;;5017497;28;20229;-81
2022/12/12 10:34:05;;;;;;;22.83;17.57;;;;;;;;;;5017765;28;20315;-82
2022/12/12 10:36:39;;;;;;;21.30;17.10;;;;;;;;;;5047374;28;20233;-82
2022/12/12 10:39:32;;;;;;;22.80;17.77;;;;;;;;;;5054886;28;20227;-83
2022/12/12 10:42:07;;;;;;;22.80;17.90;;;;;;;;;;5025389;28;20235;-82
2022/12/12 10:44:59;;;;;;;24.47;16.80;;;;;;;;;;5014343;28;20244;-83
2022/12/12 10:47:24;;;;;;;26.60;16.80;;;;;;;;;;5021549;28;20235;-82
2022/12/12 10:49:53;;;;;;;20.93;17.23;;;;;;;;;;5035552;28;20225;-82
2022/12/12 10:52:21;;;;;;;24.30;17.77;;;;;;;;;;5034805;28;20228;-81
2022/12/12 10:55:00;;;;;;;21.00;16.73;;;;;;;;;;5028681;28;20239;-82
2022/12/12 10:57:33;;;;;;;22.10;16.27;;;;;;;;;;5040945;28;20225;-84
2022/12/12 11:00:14;;;;;;;21.53;17.50;;;;;;;;;;5021418;28;20217;-81
2022/12/12 11:02:42;;;;;;;21.30;17.30;;;;;;;;;;5015440;28;20247;-82
2022/12/12 11:05:21;;;;;;;18.43;16.07;;;;;;;;;;5010429;28;20233;-84
2022/12/12 11:07:58;;;;;;;18.47;15.77;;;;;;;;;;5047549;28;20219;-83
2022/12/12 11:10:30;;;;;;;18.50;15.77;;;;;;;;;;5036309;28;20304;-83
2022/12/12 11:13:08;;;;;;;22.90;15.83;;;;;;;;;;5050493;28;20215;-83
2022/12/12 11:15:53;;;;;;;19.63;16.33;;;;;;;;;;5019932;28;20290;-84
2022/12/12 11:18:21;;;;;;;19.73;15.57;;;;;;;;;;5000725;28;20241;-84
2022/12/12 11:20:53;;;;;;;21.87;16.23;;;;;;;;;;5020772;28;20228;-84
2022/12/12 11:23:25;;;;;;;19.70;15.87;;;;;;;;;;5016804;28;20231;-85
2022/12/12 11:26:03;;;;;;;21.50;15.53;;;;;;;;;;5018913;28;20222;-84
2022/12/12 11:28:35;;;;;;;21.33;14.60;;;;;;;;;;5033713;28;20247;-84
2022/12/12 11:31:05;;;;;;;21.67;15.70;;;;;;;;;;5023373;28;20237;-84
2022/12/12 11:33:34;;;;;;;20.73;14.50;;;;;;;;;;4985719;28;20278;-84
2022/12/12 11:36:02;;;;;;;17.83;14.53;;;;;;;;;;5025655;28;20755;-83
2022/12/12 11:38:37;;;;;;;18.50;14.97;;;;;;;;;;5016256;28;20221;-81
2022/12/12 11:41:08;;;;;;;15.70;12.93;;;;;;;;;;5011816;28;20235;-84
2022/12/12 11:43:35;;;;;;;16.93;13.40;;;;;;;;;;5000049;28;20213;-83
2022/12/12 11:46:13;;;;;;;19.27;12.63;;;;;;;;;;5031364;28;20229;-82
2022/12/12 11:49:08;;;;;;;17.80;12.83;;;;;;;;;;5021367;28;20243;-83
2022/12/12 11:51:40;;;;;;;14.40;12.00;;;;;;;;;;4984791;28;20225;-82
2022/12/12 11:54:14;;;;;;;15.40;11.43;;;;;;;;;;5029732;28;20228;-83
2022/12/12 11:56:54;;;;;;;14.20;11.50;;;;;;;;;;5036380;28;20308;-83
2022/12/12 11:59:35;;;;;;;15.10;11.27;;;;;;;;;;5010782;28;20228;-83
2022/12/12 12:02:18;;;;;;;14.50;10.57;;;;;;;;;;5044549;28;20220;-84
2022/12/12 12:04:50;;;;;;;10.93;9.83;;;;;;;;;;5032297;28;20220;-83
2022/12/12 12:07:43;;;;;;;14.73;10.27;;;;;;;;;;5029735;28;20231;-83
2022/12/12 12:10:18;;;;;;;11.50;10.30;;;;;;;;;;5036354;28;20288;-83
2022/12/12 12:12:50;;;;;;;12.50;10.33;;;;;;;;;;5020925;28;20232;-82
2022/12/12 12:15:35;;;;;;;13.00;10.40;;;;;;;;;;5038066;28;20232;-84
2022/12/12 12:18:25;;;;;;;14.37;10.97;;;;;;;;;;5028971;28;20216;-83
2022/12/12 12:21:31;;;;;;;16.80;11.87;;;;;;;;;;5038282;28;20457;-82
2022/12/12 12:24:37;;;;;;;10.30;9.27;;;;;;;;;;5033036;28;20233;-81
2022/12/12 12:27:15;;;;;;;12.63;10.53;;;;;;;;;;5035257;28;20255;-82
2022/12/12 12:30:07;;;;;;;11.20;10.00;;;;;;;;;;5005191;28;20282;-82
2022/12/12 12:32:38;;;;;;;12.60;10.93;;;;;;;;;;5015351;28;20220;-82
2022/12/12 12:35:17;;;;;;;14.70;10.87;;;;;;;;;;4987865;28;20403;-82
2022/12/12 12:38:19;;;;;;;14.37;10.73;;;;;;;;;;5017565;28;20229;-82
2022/12/12 12:41:17;;;;;;;14.47;10.57;;;;;;;;;;5003411;28;20243;-82
2022/12/12 12:43:52;;;;;;;11.43;10.23;;;;;;;;;;4997042;28;20226;-82
2022/12/12 12:46:43;;;;;;;13.90;10.60;;;;;;;;;;5026800;28;20236;-82
2022/12/12 12:49:14;;;;;;;12.73;11.30;;;;;;;;;;5004271;28;20233;-81
2022/12/12 12:51:52;;;;;;;14.47;11.87;;;;;;;;;;5002625;28;20282;-81
2022/12/12 12:54:31;;;;;;;12.50;10.67;;;;;;;;;;5013807;28;20240;-82
2022/12/12 12:57:39;;;;;;;13.20;11.80;;;;;;;;;;5007725;28;20603;-82
2022/12/12 13:00:17;;;;;;;12.07;10.20;;;;;;;;;;4980130;28;20264;-82
2022/12/12 13:03:07;;;;;;;11.83;9.70;;;;;;;;;;5031673;28;20288;-82
2022/12/12 13:05:53;;;;;;;11.37;9.07;;;;;;;;;;5020841;28;20221;-82
2022/12/12 13:09:03;;;;;;;10.83;9.33;;;;;;;;;;5023607;28;20594;-83
2022/12/12 13:11:34;;;;;;;11.27;9.60;;;;;;;;;;4999563;28;20233;-83
2022/12/12 13:14:18;;;;;;;11.37;9.73;;;;;;;;;;4971278;28;20236;-82
2022/12/12 13:16:43;;;;;;;12.37;8.77;;;;;;;;;;4964462;28;20218;-82
2022/12/12 13:19:53;;;;;;;11.87;9.47;;;;;;;;;;5019024;28;20221;-83
2022/12/12 13:22:29;;;;;;;10.77;9.07;;;;;;;;;;5000908;28;20224;-83
2022/12/12 13:25:22;;;;;;;12.27;9.47;;;;;;;;;;5035347;28;20232;-83
2022/12/12 13:27:51;;;;;;;9.80;8.80;;;;;;;;;;5044055;28;20231;-82
2022/12/12 13:30:22;;;;;;;10.27;8.03;;;;;;;;;;5018257;28;20272;-82
2022/12/12 13:33:12;;;;;;;10.13;8.80;;;;;;;;;;5042968;28;20225;-82
2022/12/12 13:35:44;;;;;;;10.30;9.30;;;;;;;;;;5039830;28;20225;-82
2022/12/12 13:38:27;;;;;;;12.53;10.23;;;;;;;;;;5028539;28;20302;-82
2022/12/12 13:41:00;;;;;;;12.67;8.77;;;;;;;;;;5023233;28;20244;-79
2022/12/12 13:43:36;;;;;;;10.67;9.57;;;;;;;;;;5025404;28;20217;-80
2022/12/12 13:46:22;;;;;;;16.00;10.73;;;;;;;;;;5006463;28;20229;-80
2022/12/12 13:49:13;;;;;;;11.17;9.27;;;;;;;;;;5031219;28;20237;-82
2022/12/12 13:51:42;;;;;;;10.87;9.07;;;;;;;;;;5016842;28;20249;-85
2022/12/12 13:54:10;;;;;;;12.03;10.73;;;;;;;;;;5021082;28;20275;-85
2022/12/12 13:57:05;;;;;;;12.17;10.37;;;;;;;;;;5035318;28;20232;-83
2022/12/12 13:59:56;;;;;;;12.87;9.97;;;;;;;;;;5015377;28;20224;-85
2022/12/12 14:02:34;;;;;;;12.50;10.53;;;;;;;;;;5037472;28;20288;-83
2022/12/12 14:05:09;;;;;;;9.87;8.87;;;;;;;;;;5004800;28;20239;-83
2022/12/12 14:07:34;;;;;;;33.87;22.13;;;;;;;;;;5046987;23;20240;-78
2022/12/12 14:10:18;;;;;;;43.70;27.17;;;;;;;;;;4993208;28;20220;-75
2022/12/12 14:12:44;;;;;;;18.83;13.83;;;;;;;;;;5002508;28;20220;-77
2022/12/12 14:15:42;;;;;;;21.13;13.70;;;;;;;;;;5020413;28;20300;-77
2022/12/12 14:18:17;;;;;;;13.57;10.43;;;;;;;;;;5006654;28;20220;-76
2022/12/12 14:20:53;;;;;;;9.63;8.40;;;;;;;;;;5006168;28;20357;-77
2022/12/12 14:23:19;;;;;;;10.37;8.57;;;;;;;;;;4995268;28;20224;-77
2022/12/12 14:25:44;;;;;;;10.07;8.00;;;;;;;;;;5026595;28;20343;-78
2022/12/12 14:28:32;;;;;;;8.77;7.87;;;;;;;;;;4995461;28;20224;-76
2022/12/12 14:31:02;;;;;;;9.83;7.77;;;;;;;;;;4996603;28;20241;-77
2022/12/12 14:33:56;;;;;;;9.60;8.13;;;;;;;;;;4999416;28;20224;-79
2022/12/12 14:36:59;;;;;;;8.97;7.83;;;;;;;;;;5025857;28;20209;-78
2022/12/12 14:39:46;;;;;;;9.20;7.77;;;;;;;;;;5012708;28;20224;-78
2022/12/12 14:42:40;;;;;;;9.20;7.50;;;;;;;;;;5012022;28;20282;-77
2022/12/12 14:45:24;;;;;;;9.00;7.53;;;;;;;;;;4994592;28;20231;-77
2022/12/12 14:48:15;;;;;;;11.37;8.40;;;;;;;;;;5008706;28;20695;-76
2022/12/12 14:51:00;;;;;;;8.67;7.80;;;;;;;;;;5006733;28;20303;-77
2022/12/12 14:53:50;;;;;;;8.77;7.87;;;;;;;;;;5017304;28;20222;-77
2022/12/12 14:56:15;;;;;;;10.20;7.73;;;;;;;;;;4998128;28;20690;-76
2022/12/12 14:58:53;;;;;;;8.50;7.03;;;;;;;;;;5036932;28;20290;-76
2022/12/12 15:01:40;;;;;;;9.17;7.63;;;;;;;;;;5019260;28;20227;-76
2022/12/12 15:04:24;;;;;;;9.83;7.67;;;;;;;;;;5015575;28;20259;-77
2022/12/12 15:06:59;;;;;;;7.93;7.13;;;;;;;;;;5008756;28;20695;-76
2022/12/12 15:09:37;;;;;;;10.10;7.83;;;;;;;;;;4991760;28;20232;-77
2022/12/12 15:12:08;;;;;;;10.23;7.37;;;;;;;;;;5009577;28;20228;-77
2022/12/12 15:14:37;;;;;;;8.03;7.07;;;;;;;;;;5020608;28;20236;-77
2022/12/12 15:17:14;;;;;;;10.50;7.83;;;;;;;;;;5002336;28;20235;-76